sensor_id;sensor_type;location;lat;lon;timestamp;temperature;humidity
33207;DHT22;19565;46.602;11.534;2023-12-07T00:00:39;1.40;99.90
33207;DHT22;19565;46.602;11.534;2023-12-07T00:03:07;1.50;99.90
33207;DHT22;19565;46.602;11.534;2023-12-07T00:05:35;1.40;99.90
33207;DHT22;19565;46.602;11.534;2023-12-07T00:08:03;1.30;99.90
33207;DHT22;19565;46.602;11.534;2023-12-07T00:10:31;1.30;99.90
33207;DHT22;19565;46.602;11.534;2023-12-07T00:13:00;1.40;99.90
33207;DHT22;19565;46.602;11.534;2023-12-07T00:15:28;1.50;99.90
33207;DHT22;19565;46.602;11.534;2023-12-07T00:17:56;1.30;99.90
33207;DHT22;19565;46.602;11.534;2023-12-07T00:20:24;1.30;99.90
33207;DHT22;19565;46.602;11.534;2023-12-07T00:22:52;1.40;99.90
33207;DHT22;19565;46.602;11.534;2023-12-07T00:25:20;1.40;99.90
33207;DHT22;19565;46.602;11.534;2023-12-07T00:27:49;1.40;99.90
33207;DHT22;19565;46.602;11.534;2023-12-07T00:30:18;1.40;99.90
33207;DHT22;19565;46.602;11.534;2023-12-07T00:32:47;1.40;99.90
33207;DHT22;19565;46.602;11.534;2023-12-07T00:35:16;1.40;99.90
33207;DHT22;19565;46.602;11.534;2023-12-07T00:37:44;1.40;99.90
33207;DHT22;19565;46.602;11.534;2023-12-07T00:40:12;1.40;99.90
33207;DHT22;19565;46.602;11.534;2023-12-07T00:42:41;1.50;99.90
33207;DHT22;19565;46.602;11.534;2023-12-07T00:45:11;1.60;99.90
33207;DHT22;19565;46.602;11.534;2023-12-07T00:47:41;1.50;99.90
33207;DHT22;19565;46.602;11.534;2023-12-07T00:50:11;1.60;99.90
33207;DHT22;19565;46.602;11.534;2023-12-07T00:52:40;1.70;99.90
33207;DHT22;19565;46.602;11.534;2023-12-07T00:55:08;1.70;99.90
33207;DHT22;19565;46.602;11.534;2023-12-07T00:57:38;1.70;99.90
33207;DHT22;19565;46.602;11.534;2023-12-07T01:00:07;1.70;99.90
33207;DHT22;19565;46.602;11.534;2023-12-07T01:02:37;1.60;99.90
33207;DHT22;19565;46.602;11.534;2023-12-07T01:05:07;1.70;99.90
33207;DHT22;19565;46.602;11.534;2023-12-07T01:07:35;1.70;99.90
33207;DHT22;19565;46.602;11.534;2023-12-07T01:10:04;1.80;99.90
33207;DHT22;19565;46.602;11.534;2023-12-07T01:12:32;1.90;99.90
33207;DHT22;19565;46.602;11.534;2023-12-07T01:15:02;1.70;99.90
33207;DHT22;19565;46.602;11.534;2023-12-07T01:17:30;1.80;99.90
33207;DHT22;19565;46.602;11.534;2023-12-07T01:19:58;1.80;99.90
33207;DHT22;19565;46.602;11.534;2023-12-07T01:22:28;1.80;99.90
33207;DHT22;19565;46.602;11.534;2023-12-07T01:24:56;1.80;99.90
33207;DHT22;19565;46.602;11.534;2023-12-07T01:27:24;1.60;99.90
33207;DHT22;19565;46.602;11.534;2023-12-07T01:29:52;1.50;99.90
33207;DHT22;19565;46.602;11.534;2023-12-07T01:32:20;1.50;99.90
33207;DHT22;19565;46.602;11.534;2023-12-07T01:34:49;1.60;99.90
33207;DHT22;19565;46.602;11.534;2023-12-07T01:37:17;1.60;99.90
33207;DHT22;19565;46.602;11.534;2023-12-07T01:39:46;1.50;99.90
33207;DHT22;19565;46.602;11.534;2023-12-07T01:42:15;1.30;99.90
33207;DHT22;19565;46.602;11.534;2023-12-07T01:44:43;1.20;99.90
33207;DHT22;19565;46.602;11.534;2023-12-07T01:47:11;1.20;99.90
33207;DHT22;19565;46.602;11.534;2023-12-07T01:49:39;1.20;99.90
33207;DHT22;19565;46.602;11.534;2023-12-07T01:52:08;1.40;99.90
33207;DHT22;19565;46.602;11.534;2023-12-07T01:54:38;1.50;99.90
33207;DHT22;19565;46.602;11.534;2023-12-07T01:57:08;1.60;99.90
33207;DHT22;19565;46.602;11.534;2023-12-07T01:59:35;1.60;99.90
33207;DHT22;19565;46.602;11.534;2023-12-07T02:02:03;1.50;99.90
33207;DHT22;19565;46.602;11.534;2023-12-07T02:04:31;1.60;99.90
33207;DHT22;19565;46.602;11.534;2023-12-07T02:07:00;1.70;99.90
33207;DHT22;19565;46.602;11.534;2023-12-07T02:09:29;1.70;99.90
33207;DHT22;19565;46.602;11.534;2023-12-07T02:11:59;1.70;99.90
33207;DHT22;19565;46.602;11.534;2023-12-07T02:14:28;1.60;99.90
33207;DHT22;19565;46.602;11.534;2023-12-07T02:17:01;1.60;99.90
33207;DHT22;19565;46.602;11.534;2023-12-07T02:19:54;1.60;99.90
33207;DHT22;19565;46.602;11.534;2023-12-07T02:22:27;1.60;99.90
33207;DHT22;19565;46.602;11.534;2023-12-07T02:25:05;1.60;99.90
33207;DHT22;19565;46.602;11.534;2023-12-07T02:27:37;1.60;99.90
33207;DHT22;19565;46.602;11.534;2023-12-07T02:30:06;1.60;99.90
33207;DHT22;19565;46.602;11.534;2023-12-07T02:32:36;1.60;99.90
33207;DHT22;19565;46.602;11.534;2023-12-07T02:35:05;1.60;99.90
33207;DHT22;19565;46.602;11.534;2023-12-07T02:37:37;1.50;99.90
33207;DHT22;19565;46.602;11.534;2023-12-07T02:40:08;1.50;99.90
33207;DHT22;19565;46.602;11.534;2023-12-07T02:42:40;1.50;99.90
33207;DHT22;19565;46.602;11.534;2023-12-07T02:45:10;1.40;99.90
33207;DHT22;19565;46.602;11.534;2023-12-07T02:47:38;1.50;99.90
33207;DHT22;19565;46.602;11.534;2023-12-07T02:50:07;1.50;99.90
33207;DHT22;19565;46.602;11.534;2023-12-07T02:52:36;1.50;99.90
33207;DHT22;19565;46.602;11.534;2023-12-07T02:55:05;1.40;99.90
33207;DHT22;19565;46.602;11.534;2023-12-07T02:57:34;1.40;99.90
33207;DHT22;19565;46.602;11.534;2023-12-07T03:00:04;1.40;99.90
33207;DHT22;19565;46.602;11.534;2023-12-07T03:02:33;1.40;99.90
33207;DHT22;19565;46.602;11.534;2023-12-07T03:05:03;1.40;99.90
33207;DHT22;19565;46.602;11.534;2023-12-07T03:07:31;1.40;99.90
33207;DHT22;19565;46.602;11.534;2023-12-07T03:09:59;1.40;99.90
33207;DHT22;19565;46.602;11.534;2023-12-07T03:12:27;1.40;99.90
33207;DHT22;19565;46.602;11.534;2023-12-07T03:14:55;1.30;99.90
33207;DHT22;19565;46.602;11.534;2023-12-07T03:17:24;1.30;99.90
33207;DHT22;19565;46.602;11.534;2023-12-07T03:19:52;1.20;99.90
33207;DHT22;19565;46.602;11.534;2023-12-07T03:22:20;1.20;99.90
33207;DHT22;19565;46.602;11.534;2023-12-07T03:24:51;1.20;99.90
33207;DHT22;19565;46.602;11.534;2023-12-07T03:27:19;1.30;99.90
33207;DHT22;19565;46.602;11.534;2023-12-07T03:29:47;1.40;99.90
33207;DHT22;19565;46.602;11.534;2023-12-07T03:32:15;1.40;99.90
33207;DHT22;19565;46.602;11.534;2023-12-07T03:34:45;1.40;99.90
33207;DHT22;19565;46.602;11.534;2023-12-07T03:37:13;1.30;99.90
33207;DHT22;19565;46.602;11.534;2023-12-07T03:39:41;1.20;99.90
33207;DHT22;19565;46.602;11.534;2023-12-07T03:42:08;1.20;99.90
33207;DHT22;19565;46.602;11.534;2023-12-07T03:44:56;1.20;99.90
33207;DHT22;19565;46.602;11.534;2023-12-07T03:47:24;1.30;99.90
33207;DHT22;19565;46.602;11.534;2023-12-07T03:49:54;1.20;99.90
33207;DHT22;19565;46.602;11.534;2023-12-07T03:52:22;1.20;99.90
33207;DHT22;19565;46.602;11.534;2023-12-07T03:54:50;1.10;99.90
33207;DHT22;19565;46.602;11.534;2023-12-07T03:57:18;1.00;99.90
33207;DHT22;19565;46.602;11.534;2023-12-07T03:59:45;0.90;99.90
33207;DHT22;19565;46.602;11.534;2023-12-07T04:02:13;0.90;99.90
33207;DHT22;19565;46.602;11.534;2023-12-07T04:04:41;1.10;99.90
33207;DHT22;19565;46.602;11.534;2023-12-07T04:07:11;1.10;99.90
33207;DHT22;19565;46.602;11.534;2023-12-07T04:09:38;1.10;99.90
33207;DHT22;19565;46.602;11.534;2023-12-07T04:12:07;1.00;99.90
33207;DHT22;19565;46.602;11.534;2023-12-07T04:14:35;0.80;99.90
33207;DHT22;19565;46.602;11.534;2023-12-07T04:17:03;0.80;99.90
33207;DHT22;19565;46.602;11.534;2023-12-07T04:19:31;0.90;99.90
33207;DHT22;19565;46.602;11.534;2023-12-07T04:21:59;1.00;99.90
33207;DHT22;19565;46.602;11.534;2023-12-07T04:24:28;1.10;99.90
33207;DHT22;19565;46.602;11.534;2023-12-07T04:26:56;1.10;99.90
33207;DHT22;19565;46.602;11.534;2023-12-07T04:29:24;1.10;99.90
33207;DHT22;19565;46.602;11.534;2023-12-07T04:31:52;1.10;99.90
33207;DHT22;19565;46.602;11.534;2023-12-07T04:34:20;1.00;99.90
33207;DHT22;19565;46.602;11.534;2023-12-07T04:36:49;1.00;99.90
33207;DHT22;19565;46.602;11.534;2023-12-07T04:39:17;1.00;99.90
33207;DHT22;19565;46.602;11.534;2023-12-07T04:41:46;0.90;99.90
33207;DHT22;19565;46.602;11.534;2023-12-07T04:44:14;1.00;99.90
33207;DHT22;19565;46.602;11.534;2023-12-07T04:46:42;1.00;99.90
33207;DHT22;19565;46.602;11.534;2023-12-07T04:49:10;1.00;99.90
33207;DHT22;19565;46.602;11.534;2023-12-07T04:51:39;1.00;99.90
33207;DHT22;19565;46.602;11.534;2023-12-07T04:54:09;0.80;99.90
33207;DHT22;19565;46.602;11.534;2023-12-07T04:56:46;0.70;99.90
33207;DHT22;19565;46.602;11.534;2023-12-07T04:59:15;0.90;99.90
33207;DHT22;19565;46.602;11.534;2023-12-07T05:01:44;0.90;99.90
33207;DHT22;19565;46.602;11.534;2023-12-07T05:04:13;0.90;99.90
33207;DHT22;19565;46.602;11.534;2023-12-07T05:06:41;0.90;99.90
33207;DHT22;19565;46.602;11.534;2023-12-07T05:09:09;0.90;99.90
33207;DHT22;19565;46.602;11.534;2023-12-07T05:11:37;1.00;99.90
33207;DHT22;19565;46.602;11.534;2023-12-07T05:14:06;1.00;99.90
33207;DHT22;19565;46.602;11.534;2023-12-07T05:16:34;1.00;99.90
33207;DHT22;19565;46.602;11.534;2023-12-07T05:19:02;0.90;99.90
33207;DHT22;19565;46.602;11.534;2023-12-07T05:21:30;1.00;99.90
33207;DHT22;19565;46.602;11.534;2023-12-07T05:23:58;1.10;99.90
33207;DHT22;19565;46.602;11.534;2023-12-07T05:26:26;1.10;99.90
33207;DHT22;19565;46.602;11.534;2023-12-07T05:28:56;1.00;99.90
33207;DHT22;19565;46.602;11.534;2023-12-07T05:31:26;0.80;99.90
33207;DHT22;19565;46.602;11.534;2023-12-07T05:33:54;0.70;99.90
33207;DHT22;19565;46.602;11.534;2023-12-07T05:36:22;0.70;99.90
33207;DHT22;19565;46.602;11.534;2023-12-07T05:38:50;0.70;99.90
33207;DHT22;19565;46.602;11.534;2023-12-07T05:41:18;0.80;99.90
33207;DHT22;19565;46.602;11.534;2023-12-07T05:43:46;1.00;99.90
33207;DHT22;19565;46.602;11.534;2023-12-07T05:46:15;1.00;99.90
33207;DHT22;19565;46.602;11.534;2023-12-07T05:48:45;1.10;99.90
33207;DHT22;19565;46.602;11.534;2023-12-07T05:51:14;1.00;99.90
33207;DHT22;19565;46.602;11.534;2023-12-07T05:53:42;1.00;99.90
33207;DHT22;19565;46.602;11.534;2023-12-07T05:56:10;1.00;99.90
33207;DHT22;19565;46.602;11.534;2023-12-07T05:58:39;1.00;99.90
33207;DHT22;19565;46.602;11.534;2023-12-07T06:01:07;1.00;99.90
33207;DHT22;19565;46.602;11.534;2023-12-07T06:03:35;1.00;99.90
33207;DHT22;19565;46.602;11.534;2023-12-07T06:06:05;1.00;99.90
33207;DHT22;19565;46.602;11.534;2023-12-07T06:08:33;1.10;99.90
33207;DHT22;19565;46.602;11.534;2023-12-07T06:11:01;1.00;99.90
33207;DHT22;19565;46.602;11.534;2023-12-07T06:13:29;0.90;99.90
33207;DHT22;19565;46.602;11.534;2023-12-07T06:15:57;1.00;99.90
33207;DHT22;19565;46.602;11.534;2023-12-07T06:18:26;1.00;99.90
33207;DHT22;19565;46.602;11.534;2023-12-07T06:20:54;1.00;99.90
33207;DHT22;19565;46.602;11.534;2023-12-07T06:23:23;1.00;99.90
33207;DHT22;19565;46.602;11.534;2023-12-07T06:25:52;1.00;99.90
33207;DHT22;19565;46.602;11.534;2023-12-07T06:28:20;1.00;99.90
33207;DHT22;19565;46.602;11.534;2023-12-07T06:30:48;1.10;99.90
33207;DHT22;19565;46.602;11.534;2023-12-07T06:33:15;1.10;99.90
33207;DHT22;19565;46.602;11.534;2023-12-07T06:35:44;1.10;99.90
33207;DHT22;19565;46.602;11.534;2023-12-07T06:38:13;1.10;99.90
33207;DHT22;19565;46.602;11.534;2023-12-07T06:40:42;1.00;99.90
33207;DHT22;19565;46.602;11.534;2023-12-07T06:43:10;1.00;99.90
33207;DHT22;19565;46.602;11.534;2023-12-07T06:45:39;0.90;99.90
33207;DHT22;19565;46.602;11.534;2023-12-07T06:48:06;0.90;99.90
33207;DHT22;19565;46.602;11.534;2023-12-07T06:50:35;0.90;99.90
33207;DHT22;19565;46.602;11.534;2023-12-07T06:53:03;0.80;99.90
33207;DHT22;19565;46.602;11.534;2023-12-07T06:55:31;0.90;99.90
33207;DHT22;19565;46.602;11.534;2023-12-07T06:58:05;0.90;99.90
33207;DHT22;19565;46.602;11.534;2023-12-07T07:00:33;1.00;99.90
33207;DHT22;19565;46.602;11.534;2023-12-07T07:03:02;0.90;99.90
33207;DHT22;19565;46.602;11.534;2023-12-07T07:05:30;0.90;99.90
33207;DHT22;19565;46.602;11.534;2023-12-07T07:07:58;1.00;99.90
33207;DHT22;19565;46.602;11.534;2023-12-07T07:10:26;1.10;99.90
33207;DHT22;19565;46.602;11.534;2023-12-07T07:12:54;1.10;99.90
33207;DHT22;19565;46.602;11.534;2023-12-07T07:15:23;1.10;99.90
33207;DHT22;19565;46.602;11.534;2023-12-07T07:17:52;1.00;99.90
33207;DHT22;19565;46.602;11.534;2023-12-07T07:20:20;1.00;99.90
33207;DHT22;19565;46.602;11.534;2023-12-07T07:22:49;1.00;99.90
33207;DHT22;19565;46.602;11.534;2023-12-07T07:25:17;1.00;99.90
33207;DHT22;19565;46.602;11.534;2023-12-07T07:27:46;1.00;99.90
33207;DHT22;19565;46.602;11.534;2023-12-07T07:30:14;1.00;99.90
33207;DHT22;19565;46.602;11.534;2023-12-07T07:32:44;1.00;99.90
33207;DHT22;19565;46.602;11.534;2023-12-07T07:35:12;0.90;99.90
33207;DHT22;19565;46.602;11.534;2023-12-07T07:37:41;0.90;99.90
33207;DHT22;19565;46.602;11.534;2023-12-07T07:40:10;0.80;99.90
33207;DHT22;19565;46.602;11.534;2023-12-07T07:42:38;0.80;99.90
33207;DHT22;19565;46.602;11.534;2023-12-07T07:45:08;0.90;99.90
33207;DHT22;19565;46.602;11.534;2023-12-07T07:47:36;1.00;99.90
33207;DHT22;19565;46.602;11.534;2023-12-07T07:50:06;1.00;99.90
33207;DHT22;19565;46.602;11.534;2023-12-07T07:52:34;1.00;99.90
33207;DHT22;19565;46.602;11.534;2023-12-07T07:55:03;1.00;99.90
33207;DHT22;19565;46.602;11.534;2023-12-07T07:57:32;1.00;99.90
33207;DHT22;19565;46.602;11.534;2023-12-07T08:00:00;0.90;99.90
33207;DHT22;19565;46.602;11.534;2023-12-07T08:02:28;0.90;99.90
33207;DHT22;19565;46.602;11.534;2023-12-07T08:04:56;0.90;99.90
33207;DHT22;19565;46.602;11.534;2023-12-07T08:07:25;0.80;99.90
33207;DHT22;19565;46.602;11.534;2023-12-07T08:09:54;0.90;99.90
33207;DHT22;19565;46.602;11.534;2023-12-07T08:12:22;0.90;99.90
33207;DHT22;19565;46.602;11.534;2023-12-07T08:14:50;0.90;99.90
33207;DHT22;19565;46.602;11.534;2023-12-07T08:17:18;0.90;99.90
33207;DHT22;19565;46.602;11.534;2023-12-07T08:19:46;0.90;99.90
33207;DHT22;19565;46.602;11.534;2023-12-07T08:22:16;0.80;99.90
33207;DHT22;19565;46.602;11.534;2023-12-07T08:24:45;0.80;99.90
33207;DHT22;19565;46.602;11.534;2023-12-07T08:27:26;0.90;99.90
33207;DHT22;19565;46.602;11.534;2023-12-07T08:29:54;0.90;99.90
33207;DHT22;19565;46.602;11.534;2023-12-07T08:32:22;0.90;99.90
33207;DHT22;19565;46.602;11.534;2023-12-07T08:34:52;1.00;99.90
33207;DHT22;19565;46.602;11.534;2023-12-07T08:37:21;1.00;99.90
33207;DHT22;19565;46.602;11.534;2023-12-07T08:39:51;1.00;99.90
33207;DHT22;19565;46.602;11.534;2023-12-07T08:42:19;1.00;99.90
33207;DHT22;19565;46.602;11.534;2023-12-07T08:44:47;1.00;99.90
33207;DHT22;19565;46.602;11.534;2023-12-07T08:47:15;1.00;99.90
33207;DHT22;19565;46.602;11.534;2023-12-07T08:49:43;1.10;99.90
33207;DHT22;19565;46.602;11.534;2023-12-07T08:52:11;1.10;99.90
33207;DHT22;19565;46.602;11.534;2023-12-07T08:54:58;1.10;99.90
33207;DHT22;19565;46.602;11.534;2023-12-07T08:57:26;1.10;99.90
33207;DHT22;19565;46.602;11.534;2023-12-07T08:59:54;1.10;99.90
33207;DHT22;19565;46.602;11.534;2023-12-07T09:02:22;1.10;99.90
33207;DHT22;19565;46.602;11.534;2023-12-07T09:05:08;1.10;99.90
33207;DHT22;19565;46.602;11.534;2023-12-07T09:07:36;1.10;99.90
33207;DHT22;19565;46.602;11.534;2023-12-07T09:10:07;1.10;99.90
33207;DHT22;19565;46.602;11.534;2023-12-07T09:12:36;1.20;99.90
33207;DHT22;19565;46.602;11.534;2023-12-07T09:15:07;1.20;99.90
33207;DHT22;19565;46.602;11.534;2023-12-07T09:17:38;1.30;99.90
33207;DHT22;19565;46.602;11.534;2023-12-07T09:20:08;1.40;99.90
33207;DHT22;19565;46.602;11.534;2023-12-07T09:22:40;1.40;99.90
33207;DHT22;19565;46.602;11.534;2023-12-07T09:25:10;1.50;99.90
33207;DHT22;19565;46.602;11.534;2023-12-07T09:27:39;1.50;99.90
33207;DHT22;19565;46.602;11.534;2023-12-07T09:30:08;1.50;99.90
33207;DHT22;19565;46.602;11.534;2023-12-07T09:32:39;1.60;99.90
33207;DHT22;19565;46.602;11.534;2023-12-07T09:35:08;1.60;99.90
33207;DHT22;19565;46.602;11.534;2023-12-07T09:37:41;1.70;99.90
33207;DHT22;19565;46.602;11.534;2023-12-07T09:40:14;1.70;99.90
33207;DHT22;19565;46.602;11.534;2023-12-07T09:42:44;1.70;99.90
33207;DHT22;19565;46.602;11.534;2023-12-07T09:45:12;1.80;99.90
33207;DHT22;19565;46.602;11.534;2023-12-07T09:47:43;1.80;99.90
33207;DHT22;19565;46.602;11.534;2023-12-07T09:50:16;1.80;99.90
33207;DHT22;19565;46.602;11.534;2023-12-07T09:52:47;1.90;99.90
33207;DHT22;19565;46.602;11.534;2023-12-07T09:55:31;2.00;99.90
33207;DHT22;19565;46.602;11.534;2023-12-07T09:58:01;2.00;99.90
33207;DHT22;19565;46.602;11.534;2023-12-07T10:00:31;2.10;99.90
33207;DHT22;19565;46.602;11.534;2023-12-07T10:03:00;2.20;99.90
33207;DHT22;19565;46.602;11.534;2023-12-07T10:05:28;2.20;99.90
33207;DHT22;19565;46.602;11.534;2023-12-07T10:07:56;2.30;99.90
33207;DHT22;19565;46.602;11.534;2023-12-07T10:10:24;2.30;99.90
33207;DHT22;19565;46.602;11.534;2023-12-07T10:12:55;2.30;99.90
33207;DHT22;19565;46.602;11.534;2023-12-07T10:15:24;2.40;99.90
33207;DHT22;19565;46.602;11.534;2023-12-07T10:17:56;2.40;99.90
33207;DHT22;19565;46.602;11.534;2023-12-07T10:20:26;2.40;99.90
33207;DHT22;19565;46.602;11.534;2023-12-07T10:23:01;2.50;99.90
33207;DHT22;19565;46.602;11.534;2023-12-07T10:25:31;2.40;99.90
33207;DHT22;19565;46.602;11.534;2023-12-07T10:28:00;2.40;99.90
33207;DHT22;19565;46.602;11.534;2023-12-07T10:30:33;2.40;99.90
33207;DHT22;19565;46.602;11.534;2023-12-07T10:33:03;2.40;99.90
33207;DHT22;19565;46.602;11.534;2023-12-07T10:35:31;2.40;99.90
33207;DHT22;19565;46.602;11.534;2023-12-07T10:37:59;2.50;99.90
33207;DHT22;19565;46.602;11.534;2023-12-07T10:40:27;2.50;99.90
33207;DHT22;19565;46.602;11.534;2023-12-07T10:42:57;2.60;99.90
33207;DHT22;19565;46.602;11.534;2023-12-07T10:45:30;2.60;99.90
33207;DHT22;19565;46.602;11.534;2023-12-07T10:48:02;2.70;99.90
33207;DHT22;19565;46.602;11.534;2023-12-07T10:50:35;2.80;99.90
33207;DHT22;19565;46.602;11.534;2023-12-07T10:53:08;2.90;99.90
33207;DHT22;19565;46.602;11.534;2023-12-07T10:55:42;2.90;99.90
33207;DHT22;19565;46.602;11.534;2023-12-07T10:58:13;3.00;99.90
33207;DHT22;19565;46.602;11.534;2023-12-07T11:00:44;3.10;99.90
33207;DHT22;19565;46.602;11.534;2023-12-07T11:03:15;3.10;99.90
33207;DHT22;19565;46.602;11.534;2023-12-07T11:05:45;3.20;99.90
33207;DHT22;19565;46.602;11.534;2023-12-07T11:08:19;3.20;99.90
33207;DHT22;19565;46.602;11.534;2023-12-07T11:10:55;3.30;99.90
33207;DHT22;19565;46.602;11.534;2023-12-07T11:13:29;3.40;99.90
33207;DHT22;19565;46.602;11.534;2023-12-07T11:16:00;3.40;99.90
33207;DHT22;19565;46.602;11.534;2023-12-07T11:18:28;3.50;99.90
33207;DHT22;19565;46.602;11.534;2023-12-07T11:20:57;3.50;99.90
33207;DHT22;19565;46.602;11.534;2023-12-07T11:23:27;3.60;99.90
33207;DHT22;19565;46.602;11.534;2023-12-07T11:25:55;3.60;99.90
33207;DHT22;19565;46.602;11.534;2023-12-07T11:28:34;3.70;99.90
33207;DHT22;19565;46.602;11.534;2023-12-07T11:31:06;3.70;99.90
33207;DHT22;19565;46.602;11.534;2023-12-07T11:33:37;3.80;99.90
33207;DHT22;19565;46.602;11.534;2023-12-07T11:36:07;3.80;99.90
33207;DHT22;19565;46.602;11.534;2023-12-07T11:38:36;3.80;99.90
33207;DHT22;19565;46.602;11.534;2023-12-07T11:41:05;3.90;99.90
33207;DHT22;19565;46.602;11.534;2023-12-07T11:43:42;3.90;99.90
33207;DHT22;19565;46.602;11.534;2023-12-07T11:46:15;3.90;99.90
33207;DHT22;19565;46.602;11.534;2023-12-07T11:48:49;3.90;99.90
33207;DHT22;19565;46.602;11.534;2023-12-07T11:51:17;4.00;99.90
33207;DHT22;19565;46.602;11.534;2023-12-07T11:53:45;4.00;99.90
33207;DHT22;19565;46.602;11.534;2023-12-07T11:56:17;4.10;99.90
33207;DHT22;19565;46.602;11.534;2023-12-07T11:58:48;4.10;99.90
33207;DHT22;19565;46.602;11.534;2023-12-07T12:01:18;4.10;99.90
33207;DHT22;19565;46.602;11.534;2023-12-07T12:03:47;4.20;99.90
33207;DHT22;19565;46.602;11.534;2023-12-07T12:06:15;4.20;99.90
33207;DHT22;19565;46.602;11.534;2023-12-07T12:08:44;4.20;99.90
33207;DHT22;19565;46.602;11.534;2023-12-07T12:11:12;4.20;99.90
33207;DHT22;19565;46.602;11.534;2023-12-07T12:13:41;4.30;99.90
33207;DHT22;19565;46.602;11.534;2023-12-07T12:16:09;4.30;99.90
33207;DHT22;19565;46.602;11.534;2023-12-07T12:18:38;4.30;99.90
33207;DHT22;19565;46.602;11.534;2023-12-07T12:21:07;4.30;99.90
33207;DHT22;19565;46.602;11.534;2023-12-07T12:23:36;4.30;99.90
33207;DHT22;19565;46.602;11.534;2023-12-07T12:26:07;4.30;99.90
33207;DHT22;19565;46.602;11.534;2023-12-07T12:28:36;4.40;99.90
33207;DHT22;19565;46.602;11.534;2023-12-07T12:31:10;4.40;99.90
33207;DHT22;19565;46.602;11.534;2023-12-07T12:33:40;4.50;99.90
33207;DHT22;19565;46.602;11.534;2023-12-07T12:36:09;4.50;99.90
33207;DHT22;19565;46.602;11.534;2023-12-07T12:38:38;4.50;99.90
33207;DHT22;19565;46.602;11.534;2023-12-07T12:41:10;4.50;99.90
33207;DHT22;19565;46.602;11.534;2023-12-07T12:43:39;4.50;99.90
33207;DHT22;19565;46.602;11.534;2023-12-07T12:46:07;4.50;99.90
33207;DHT22;19565;46.602;11.534;2023-12-07T12:48:35;4.50;99.90
33207;DHT22;19565;46.602;11.534;2023-12-07T12:51:12;4.50;99.90
33207;DHT22;19565;46.602;11.534;2023-12-07T12:53:43;4.50;99.90
33207;DHT22;19565;46.602;11.534;2023-12-07T12:56:19;4.50;99.90
33207;DHT22;19565;46.602;11.534;2023-12-07T12:58:48;4.50;99.90
33207;DHT22;19565;46.602;11.534;2023-12-07T13:01:17;4.50;99.90
33207;DHT22;19565;46.602;11.534;2023-12-07T13:03:45;4.60;99.90
33207;DHT22;19565;46.602;11.534;2023-12-07T13:06:16;4.60;99.90
33207;DHT22;19565;46.602;11.534;2023-12-07T13:08:45;4.60;99.90
33207;DHT22;19565;46.602;11.534;2023-12-07T13:11:15;4.60;99.90
33207;DHT22;19565;46.602;11.534;2023-12-07T13:13:44;4.70;99.90
33207;DHT22;19565;46.602;11.534;2023-12-07T13:16:14;4.70;99.90
33207;DHT22;19565;46.602;11.534;2023-12-07T13:18:42;4.70;99.90
33207;DHT22;19565;46.602;11.534;2023-12-07T13:21:11;4.70;99.90
33207;DHT22;19565;46.602;11.534;2023-12-07T13:23:43;4.70;99.90
33207;DHT22;19565;46.602;11.534;2023-12-07T13:26:13;4.70;99.90
33207;DHT22;19565;46.602;11.534;2023-12-07T13:28:41;4.70;99.90
33207;DHT22;19565;46.602;11.534;2023-12-07T13:31:09;4.60;99.90
33207;DHT22;19565;46.602;11.534;2023-12-07T13:33:37;4.60;99.90
33207;DHT22;19565;46.602;11.534;2023-12-07T13:36:19;4.60;99.90
33207;DHT22;19565;46.602;11.534;2023-12-07T13:38:51;4.50;99.90
33207;DHT22;19565;46.602;11.534;2023-12-07T13:41:19;4.50;99.90
33207;DHT22;19565;46.602;11.534;2023-12-07T13:43:47;4.50;99.90
33207;DHT22;19565;46.602;11.534;2023-12-07T13:46:17;4.40;99.90
33207;DHT22;19565;46.602;11.534;2023-12-07T13:48:45;4.40;99.90
33207;DHT22;19565;46.602;11.534;2023-12-07T13:51:13;4.40;99.90
33207;DHT22;19565;46.602;11.534;2023-12-07T13:53:41;4.40;99.90
33207;DHT22;19565;46.602;11.534;2023-12-07T13:56:10;4.40;99.90
33207;DHT22;19565;46.602;11.534;2023-12-07T13:58:38;4.40;99.90
33207;DHT22;19565;46.602;11.534;2023-12-07T14:01:07;4.40;99.90
33207;DHT22;19565;46.602;11.534;2023-12-07T14:03:35;4.40;99.90
33207;DHT22;19565;46.602;11.534;2023-12-07T14:06:04;4.40;99.90
33207;DHT22;19565;46.602;11.534;2023-12-07T14:08:47;4.40;99.90
33207;DHT22;19565;46.602;11.534;2023-12-07T14:11:16;4.40;99.90
33207;DHT22;19565;46.602;11.534;2023-12-07T14:13:45;4.30;99.90
33207;DHT22;19565;46.602;11.534;2023-12-07T14:16:15;4.30;99.90
33207;DHT22;19565;46.602;11.534;2023-12-07T14:18:57;4.40;99.90
33207;DHT22;19565;46.602;11.534;2023-12-07T14:21:41;4.30;99.90
33207;DHT22;19565;46.602;11.534;2023-12-07T14:24:21;4.30;99.90
33207;DHT22;19565;46.602;11.534;2023-12-07T14:26:51;4.30;99.90
33207;DHT22;19565;46.602;11.534;2023-12-07T14:29:19;4.30;99.90
33207;DHT22;19565;46.602;11.534;2023-12-07T14:31:53;4.20;99.90
33207;DHT22;19565;46.602;11.534;2023-12-07T14:34:21;4.20;99.90
33207;DHT22;19565;46.602;11.534;2023-12-07T14:37:01;4.20;99.90
33207;DHT22;19565;46.602;11.534;2023-12-07T14:39:29;4.20;99.90
33207;DHT22;19565;46.602;11.534;2023-12-07T14:41:59;4.10;99.90
33207;DHT22;19565;46.602;11.534;2023-12-07T14:44:26;4.10;99.90
33207;DHT22;19565;46.602;11.534;2023-12-07T14:46:56;4.10;99.90
33207;DHT22;19565;46.602;11.534;2023-12-07T14:49:24;4.00;99.90
33207;DHT22;19565;46.602;11.534;2023-12-07T14:51:54;4.00;99.90
33207;DHT22;19565;46.602;11.534;2023-12-07T14:54:23;4.00;99.90
33207;DHT22;19565;46.602;11.534;2023-12-07T14:56:56;3.90;99.90
33207;DHT22;19565;46.602;11.534;2023-12-07T14:59:26;3.90;99.90
33207;DHT22;19565;46.602;11.534;2023-12-07T15:01:54;3.90;99.90
33207;DHT22;19565;46.602;11.534;2023-12-07T15:04:22;3.90;99.90
33207;DHT22;19565;46.602;11.534;2023-12-07T15:07:00;3.90;99.90
33207;DHT22;19565;46.602;11.534;2023-12-07T15:09:28;3.90;99.90
33207;DHT22;19565;46.602;11.534;2023-12-07T15:11:57;3.80;99.90
33207;DHT22;19565;46.602;11.534;2023-12-07T15:14:26;3.80;99.90
33207;DHT22;19565;46.602;11.534;2023-12-07T15:17:04;3.70;99.90
33207;DHT22;19565;46.602;11.534;2023-12-07T15:19:34;3.70;99.90
33207;DHT22;19565;46.602;11.534;2023-12-07T15:22:04;3.70;99.90
33207;DHT22;19565;46.602;11.534;2023-12-07T15:24:32;3.70;99.90
33207;DHT22;19565;46.602;11.534;2023-12-07T15:27:03;3.70;99.90
33207;DHT22;19565;46.602;11.534;2023-12-07T15:29:33;3.60;99.90
33207;DHT22;19565;46.602;11.534;2023-12-07T15:32:03;3.60;99.90
33207;DHT22;19565;46.602;11.534;2023-12-07T15:34:31;3.60;99.90
33207;DHT22;19565;46.602;11.534;2023-12-07T15:37:07;3.50;99.90
33207;DHT22;19565;46.602;11.534;2023-12-07T15:39:36;3.50;99.90
33207;DHT22;19565;46.602;11.534;2023-12-07T15:42:05;3.50;99.90
33207;DHT22;19565;46.602;11.534;2023-12-07T15:44:34;3.50;99.90